createdAt,value
2019-02-17T00:00:10.109Z,96381.24
2019-02-17T00:02:44.927Z,96383.15
2019-02-17T00:05:13.958Z,96383.88
2019-02-17T00:07:43.041Z,96383.42
2019-02-17T00:10:12.113Z,96383.72
2019-02-17T00:12:41.154Z,96386.55
2019-02-17T00:15:11.403Z,96384.09
2019-02-17T00:17:40.486Z,96381.41
2019-02-17T00:20:09.531Z,96378.11
2019-02-17T00:22:38.600Z,96379.12
2019-02-17T00:25:07.729Z,96376.97
2019-02-17T00:27:37.223Z,96377.12
2019-02-17T00:30:08.928Z,96380.43
2019-02-17T00:32:38.015Z,96382.86
2019-02-17T00:35:09.684Z,96380.75
2019-02-17T00:37:38.776Z,96385.20
2019-02-17T00:40:07.829Z,96383.41
2019-02-17T00:42:36.939Z,96388.43
2019-02-17T00:45:06.986Z,96388.02
2019-02-17T00:47:36.783Z,96387.35
2019-02-17T00:50:06.827Z,96384.97
2019-02-17T00:52:35.869Z,96385.09
2019-02-17T00:55:05.816Z,96392.34
2019-02-17T00:57:34.882Z,96386.23
2019-02-17T01:02:40.216Z,96389.86
2019-02-17T01:05:10.227Z,96384.46
2019-02-17T01:10:21.119Z,96387.73
2019-02-17T01:12:50.304Z,96382.42
2019-02-17T01:15:19.333Z,96382.69
2019-02-17T01:17:48.415Z,96378.95
2019-02-17T01:20:18.233Z,96381.45
2019-02-17T01:22:49.304Z,96379.58
2019-02-17T01:25:19.271Z,96374.70
2019-02-17T01:27:48.348Z,96377.55
2019-02-17T01:30:17.385Z,96377.77
2019-02-17T01:32:47.387Z,96374.22
2019-02-17T01:35:17.412Z,96373.05
2019-02-17T01:40:32.769Z,96370.14
2019-02-17T01:43:02.741Z,96375.94
2019-02-17T01:45:31.791Z,96373.56
2019-02-17T01:50:41.686Z,96372.48
2019-02-17T01:53:11.727Z,96364.72
2019-02-17T01:55:40.795Z,96363.84
2019-02-17T02:00:48.138Z,96356.27
2019-02-17T02:03:18.151Z,96352.88
2019-02-17T02:05:47.743Z,96351.77
2019-02-17T02:08:17.828Z,96350.52
2019-02-17T02:10:46.883Z,96352.53
2019-02-17T02:16:01.560Z,96346.98
2019-02-17T02:18:32.256Z,96335.94
2019-02-17T02:21:01.343Z,96334.37
2019-02-17T02:23:30.399Z,96343.43
2019-02-17T02:25:59.825Z,96339.84
2019-02-17T02:28:28.893Z,96331.98
2019-02-17T02:30:57.962Z,96332.80
2019-02-17T02:33:27.001Z,96329.03
2019-02-17T02:35:56.052Z,96330.78
2019-02-17T02:38:27.376Z,96331.98
2019-02-17T02:40:56.447Z,96330.20
2019-02-17T02:43:25.517Z,96329.30
2019-02-17T02:45:54.576Z,96329.78
2019-02-17T02:48:23.643Z,96329.75
2019-02-17T02:50:57.253Z,96329.80
2019-02-17T02:53:26.325Z,96331.50
2019-02-17T02:55:55.389Z,96327.39
2019-02-17T02:58:38.183Z,96329.02
2019-02-17T03:01:10.458Z,96329.58
2019-02-17T03:03:40.358Z,96328.33
2019-02-17T03:06:10.351Z,96326.34
2019-02-17T03:08:39.403Z,96326.55
2019-02-17T03:14:09.075Z,96330.73
2019-02-17T03:16:38.130Z,96321.02
2019-02-17T03:19:07.180Z,96322.78
2019-02-17T03:21:38.230Z,96321.14
2019-02-17T03:24:07.867Z,96325.41
2019-02-17T03:26:36.958Z,96323.47
2019-02-17T03:31:41.192Z,96327.31
2019-02-17T03:34:10.290Z,96338.71
2019-02-17T03:36:40.205Z,96329.28
2019-02-17T03:39:09.304Z,96326.97
2019-02-17T03:41:52.329Z,96328.05
2019-02-17T03:44:25.903Z,96325.79
2019-02-17T03:46:54.984Z,96327.40
2019-02-17T03:57:12.299Z,96329.00
2019-02-17T03:59:41.469Z,96328.81
2019-02-17T04:02:10.538Z,96329.75
2019-02-17T04:07:18.373Z,96329.28
2019-02-17T04:09:48.991Z,96332.36
2019-02-17T04:12:19.077Z,96328.81
2019-02-17T04:14:48.142Z,96332.56
2019-02-17T04:17:17.196Z,96331.44
2019-02-17T04:19:46.283Z,96329.62
2019-02-17T04:22:15.800Z,96331.65
2019-02-17T04:24:44.912Z,96331.26
2019-02-17T04:27:13.977Z,96337.06
2019-02-17T04:29:43.373Z,96331.70
2019-02-17T04:32:12.561Z,96329.91
2019-02-17T04:34:41.602Z,96332.65
2019-02-17T04:37:11.588Z,96331.47
2019-02-17T04:42:17.043Z,96334.56
2019-02-17T04:46:27.585Z,96335.92
2019-02-17T04:48:57.269Z,96333.84
2019-02-17T04:51:26.347Z,96336.27
2019-02-17T04:53:55.398Z,96340.17
2019-02-17T04:56:24.439Z,96339.80
2019-02-17T04:58:53.520Z,96339.81
2019-02-17T05:01:24.117Z,96336.61
2019-02-17T05:03:53.208Z,96337.27
2019-02-17T05:06:22.280Z,96335.90
2019-02-17T05:08:51.354Z,96329.72
2019-02-17T05:11:21.352Z,96333.43
2019-02-17T05:13:50.947Z,96334.19
2019-02-17T05:16:20.951Z,96333.05
2019-02-17T05:18:50.036Z,96330.91
2019-02-17T05:21:22.262Z,96329.27
2019-02-17T05:23:52.242Z,96329.32
2019-02-17T05:26:21.306Z,96324.38
2019-02-17T05:28:51.292Z,96334.97
2019-02-17T05:31:21.947Z,96330.64
2019-02-17T05:33:51.927Z,96330.41
2019-02-17T05:38:57.666Z,96335.34
2019-02-17T05:41:29.873Z,96334.89
2019-02-17T05:49:13.286Z,96341.24
2019-02-17T05:51:42.337Z,96345.61
2019-02-17T05:54:17.731Z,96344.75
2019-02-17T05:56:46.879Z,96348.66
2019-02-17T05:59:16.934Z,96347.02
2019-02-17T06:01:45.999Z,96346.25
2019-02-17T06:04:18.903Z,96345.22
2019-02-17T06:06:48.460Z,96342.72
2019-02-17T06:09:18.526Z,96339.17
2019-02-17T06:11:48.980Z,96344.50
2019-02-17T06:17:09.928Z,96352.22
2019-02-17T06:19:39.898Z,96355.61
2019-02-17T06:22:09.496Z,96354.63
2019-02-17T06:24:39.001Z,96355.25
2019-02-17T06:27:08.592Z,96359.24
2019-02-17T06:29:37.696Z,96362.11
2019-02-17T06:32:07.172Z,96362.52
2019-02-17T06:34:36.268Z,96365.75
2019-02-17T06:37:05.343Z,96366.94
2019-02-17T06:39:36.362Z,96366.69
2019-02-17T06:42:05.443Z,96370.23
2019-02-17T06:44:34.508Z,96369.82
2019-02-17T06:47:03.563Z,96371.42
2019-02-17T06:49:33.611Z,96371.19
2019-02-17T06:52:03.221Z,96370.02
2019-02-17T06:54:40.089Z,96366.31
2019-02-17T06:57:09.131Z,96372.56
2019-02-17T06:59:41.861Z,96371.18
2019-02-17T07:02:11.501Z,96370.61
2019-02-17T07:10:01.475Z,96376.72
2019-02-17T07:12:31.510Z,96376.36
2019-02-17T07:15:00.553Z,96374.38
2019-02-17T07:17:37.577Z,96373.66
2019-02-17T07:20:06.639Z,96373.00
2019-02-17T07:22:36.595Z,96375.41
2019-02-17T07:25:06.045Z,96377.72
2019-02-17T07:30:12.129Z,96369.38
2019-02-17T07:32:41.193Z,96366.60
2019-02-17T07:35:10.304Z,96366.92
2019-02-17T07:37:40.782Z,96370.77
2019-02-17T07:40:09.863Z,96369.00
2019-02-17T07:42:46.303Z,96369.30
2019-02-17T07:45:15.347Z,96369.69
2019-02-17T07:47:44.423Z,96371.23
2019-02-17T07:50:13.853Z,96371.25
2019-02-17T07:52:42.970Z,96370.06
2019-02-17T07:55:11.987Z,96373.50
2019-02-17T07:57:42.586Z,96370.83
2019-02-17T08:00:11.702Z,96373.20
2019-02-17T08:02:58.646Z,96366.95
2019-02-17T08:05:39.539Z,96370.44
2019-02-17T08:08:08.595Z,96366.45
2019-02-17T08:10:38.264Z,96365.33
2019-02-17T08:13:07.330Z,96362.12
2019-02-17T08:15:36.424Z,96368.67
2019-02-17T08:18:06.456Z,96363.11
2019-02-17T08:20:36.751Z,96366.31
2019-02-17T08:23:07.075Z,96368.25
2019-02-17T08:25:36.140Z,96369.05
2019-02-17T08:28:05.283Z,96360.43
2019-02-17T08:30:35.490Z,96359.06
2019-02-17T08:35:41.811Z,96356.49
2019-02-17T08:38:10.869Z,96359.08
2019-02-17T08:40:39.910Z,96347.95
2019-02-17T08:43:10.287Z,96349.67
2019-02-17T08:45:41.342Z,96347.34
2019-02-17T08:48:10.382Z,96348.23
2019-02-17T08:50:41.365Z,96344.57
2019-02-17T08:53:10.551Z,96346.16
2019-02-17T08:58:15.615Z,96336.44
2019-02-17T09:00:45.588Z,96336.80
2019-02-17T09:03:14.634Z,96335.18
2019-02-17T09:05:44.522Z,96336.14
2019-02-17T09:10:50.003Z,96338.46
2019-02-17T09:15:56.309Z,96333.41
2019-02-17T09:18:26.411Z,96330.41
2019-02-17T09:20:55.467Z,96327.89
2019-02-17T09:23:24.524Z,96325.84
2019-02-17T09:25:53.609Z,96327.37
2019-02-17T09:30:58.461Z,96323.89
2019-02-17T09:33:27.526Z,96328.23
2019-02-17T09:35:56.588Z,96320.02
2019-02-17T09:38:25.668Z,96322.06
2019-02-17T09:40:55.455Z,96316.45
2019-02-17T09:43:24.548Z,96318.11
2019-02-17T09:45:53.594Z,96320.73
2019-02-17T09:48:27.607Z,96324.64
2019-02-17T09:50:58.055Z,96324.08
2019-02-17T09:53:27.116Z,96323.17
2019-02-17T09:55:56.202Z,96324.76
2019-02-17T09:58:25.251Z,96328.45
2019-02-17T10:00:54.615Z,96323.90
2019-02-17T10:03:23.686Z,96319.36
2019-02-17T10:05:52.759Z,96317.25
2019-02-17T10:08:21.884Z,96315.06
2019-02-17T10:10:50.936Z,96314.38
2019-02-17T10:15:56.290Z,96315.94
2019-02-17T10:21:05.123Z,96313.67
2019-02-17T10:23:34.214Z,96311.39
2019-02-17T10:26:05.252Z,96317.20
2019-02-17T10:28:42.094Z,96309.50
2019-02-17T10:31:04.999Z,96310.67
2019-02-17T10:33:43.995Z,96309.16
2019-02-17T10:36:17.435Z,96299.66
2019-02-17T10:38:46.744Z,96299.76
2019-02-17T10:41:19.499Z,96297.95
2019-02-17T10:43:48.534Z,96287.23
2019-02-17T10:48:53.489Z,96280.81
2019-02-17T10:51:22.527Z,96281.02
2019-02-17T10:53:51.573Z,96277.47
2019-02-17T10:56:21.553Z,96273.05
2019-02-17T10:58:51.306Z,96275.17
2019-02-17T11:01:20.359Z,96262.95
2019-02-17T11:04:05.284Z,96264.17
2019-02-17T11:06:34.792Z,96262.16
2019-02-17T11:09:05.882Z,96255.73
2019-02-17T11:11:34.931Z,96255.67
2019-02-17T11:14:05.984Z,96245.82
2019-02-17T11:16:40.037Z,96249.56
2019-02-17T11:19:11.604Z,96246.23
2019-02-17T11:21:40.678Z,96242.41
2019-02-17T11:24:09.762Z,96240.14
2019-02-17T11:26:38.824Z,96233.30
2019-02-17T11:31:44.076Z,96226.33
2019-02-17T11:34:13.231Z,96220.44
2019-02-17T11:36:42.283Z,96217.17
2019-02-17T11:39:18.559Z,96210.57
2019-02-17T11:41:48.551Z,96201.97
2019-02-17T11:44:17.659Z,96204.82
2019-02-17T11:46:46.687Z,96202.42
2019-02-17T11:49:15.727Z,96203.25
2019-02-17T11:51:46.436Z,96201.19
2019-02-17T11:56:50.840Z,96188.16
2019-02-17T11:59:20.852Z,96194.55
2019-02-17T12:01:50.850Z,96190.68
2019-02-17T12:04:20.493Z,96176.26
2019-02-17T12:06:49.577Z,96178.52
2019-02-17T12:09:18.638Z,96181.03
2019-02-17T12:11:50.002Z,96174.06
2019-02-17T12:14:19.119Z,96178.47
2019-02-17T12:16:49.134Z,96175.03
2019-02-17T12:19:18.179Z,96164.63
2019-02-17T12:21:54.453Z,96166.00
2019-02-17T12:24:24.273Z,96160.78
2019-02-17T12:26:58.956Z,96160.26
2019-02-17T12:29:43.640Z,96157.84
2019-02-17T12:32:12.839Z,96155.72
2019-02-17T12:34:41.910Z,96143.67
2019-02-17T12:37:11.450Z,96144.47
2019-02-17T12:39:41.562Z,96138.68
2019-02-17T12:47:27.851Z,96124.61
2019-02-17T12:49:57.663Z,96130.20
2019-02-17T12:52:27.703Z,96124.98
2019-02-17T12:54:56.797Z,96125.70
2019-02-17T12:57:26.368Z,96123.06
2019-02-17T12:59:55.408Z,96126.61
2019-02-17T13:02:24.456Z,96122.87
2019-02-17T13:05:02.367Z,96121.35
2019-02-17T13:07:32.737Z,96119.92
2019-02-17T13:10:02.237Z,96114.89
2019-02-17T13:12:31.335Z,96111.29
2019-02-17T13:15:00.408Z,96113.63
2019-02-17T13:17:29.513Z,96106.46
2019-02-17T13:19:58.592Z,96101.92
2019-02-17T13:22:28.410Z,96100.63
2019-02-17T13:24:57.502Z,96097.47
2019-02-17T13:30:03.343Z,96096.44
2019-02-17T13:32:33.371Z,96093.95
2019-02-17T13:35:04.157Z,96090.13
2019-02-17T13:37:33.267Z,96094.70
2019-02-17T13:40:02.324Z,96087.25
2019-02-17T13:42:32.624Z,96082.44
2019-02-17T13:45:01.949Z,96087.35
2019-02-17T13:47:31.012Z,96079.41
2019-02-17T13:50:01.036Z,96079.49
2019-02-17T13:52:32.014Z,96072.62
2019-02-17T13:54:59.631Z,96067.50
2019-02-17T13:57:30.597Z,96069.12
2019-02-17T14:02:39.581Z,96068.73
2019-02-17T14:05:08.647Z,96064.32
2019-02-17T14:07:38.580Z,96065.44
2019-02-17T14:10:10.642Z,96063.48
2019-02-17T14:12:39.726Z,96065.45
2019-02-17T14:15:13.899Z,96061.42
2019-02-17T14:17:42.955Z,96061.77
2019-02-17T14:22:47.824Z,96051.44
2019-02-17T14:25:16.900Z,96056.26
2019-02-17T14:27:46.656Z,96053.65
2019-02-17T14:30:17.452Z,96053.19
2019-02-17T14:32:46.567Z,96050.98
2019-02-17T14:35:15.598Z,96046.61
2019-02-17T14:37:44.647Z,96047.46
2019-02-17T14:40:14.101Z,96046.11
2019-02-17T14:42:43.187Z,96046.03
2019-02-17T14:45:13.731Z,96040.41
2019-02-17T14:47:45.218Z,96042.33
2019-02-17T14:50:14.256Z,96036.14
2019-02-17T14:52:44.245Z,96040.91
2019-02-17T14:55:16.472Z,96036.64
2019-02-17T14:57:50.248Z,96037.09
2019-02-17T15:00:23.418Z,96034.56
2019-02-17T15:02:52.467Z,96034.64
2019-02-17T15:05:22.431Z,96032.05
2019-02-17T15:07:52.471Z,96029.02
2019-02-17T15:10:21.525Z,96035.87
2019-02-17T15:12:51.277Z,96033.20
2019-02-17T15:15:20.350Z,96033.48
2019-02-17T15:20:26.110Z,96027.95
2019-02-17T15:25:31.027Z,96019.99
2019-02-17T15:28:00.375Z,96027.50
2019-02-17T15:30:29.406Z,96017.55
2019-02-17T15:33:03.954Z,96018.39
2019-02-17T15:35:29.405Z,96015.51
2019-02-17T15:37:58.526Z,96015.84
2019-02-17T15:43:03.338Z,96010.19
2019-02-17T15:45:33.029Z,96012.75
2019-02-17T15:48:02.110Z,96016.27
2019-02-17T15:50:31.147Z,96015.44
2019-02-17T15:53:01.721Z,96013.59
2019-02-17T15:55:31.771Z,96014.86
2019-02-17T16:00:36.662Z,96015.73
2019-02-17T16:03:05.701Z,96014.59
2019-02-17T16:05:37.354Z,96014.98
2019-02-17T16:08:06.917Z,96015.05
2019-02-17T16:10:36.906Z,96015.25
2019-02-17T16:13:09.075Z,96014.05
2019-02-17T16:15:39.086Z,96015.76
2019-02-17T16:18:08.666Z,96016.63
2019-02-17T16:20:39.759Z,96014.48
2019-02-17T16:23:09.771Z,96015.02
2019-02-17T16:25:39.251Z,96011.50
2019-02-17T16:28:10.225Z,96010.52
2019-02-17T16:30:39.286Z,96009.23
2019-02-17T16:33:08.351Z,96017.13
2019-02-17T16:35:37.504Z,96024.77
2019-02-17T16:38:07.210Z,96020.92
2019-02-17T16:40:36.259Z,96022.85
2019-02-17T16:43:06.243Z,96020.27
2019-02-17T16:45:36.269Z,96019.59
2019-02-17T16:50:41.354Z,96019.41
2019-02-17T16:55:46.207Z,96026.64
2019-02-17T17:03:40.269Z,96037.98
2019-02-17T17:06:09.543Z,96047.37
2019-02-17T17:08:38.552Z,96042.59
2019-02-17T17:13:42.851Z,96048.89
2019-02-17T17:18:48.578Z,96048.63
2019-02-17T17:21:19.543Z,96050.31
2019-02-17T17:23:49.112Z,96054.34
2019-02-17T17:26:18.181Z,96057.00
2019-02-17T17:28:47.224Z,96055.90
2019-02-17T17:31:16.275Z,96056.42
2019-02-17T17:36:22.774Z,96066.48
2019-02-17T17:38:51.860Z,96060.92
2019-02-17T17:41:20.892Z,96063.10
2019-02-17T17:46:30.307Z,96067.66
2019-02-17T17:49:00.339Z,96066.34
2019-02-17T17:51:30.336Z,96067.70
2019-02-17T17:53:59.540Z,96070.53
2019-02-17T17:56:41.905Z,96068.81
2019-02-17T17:59:14.322Z,96070.28
2019-02-17T18:01:43.354Z,96074.73
2019-02-17T18:04:14.366Z,96075.70
2019-02-17T18:06:43.425Z,96077.84
2019-02-17T18:11:48.203Z,96082.62
2019-02-17T18:14:21.408Z,96081.08
2019-02-17T18:16:50.462Z,96078.25
2019-02-17T18:19:19.487Z,96075.34
2019-02-17T18:21:48.996Z,96082.42
2019-02-17T18:24:18.071Z,96081.06
2019-02-17T18:29:22.975Z,96080.03
2019-02-17T18:31:52.043Z,96079.11
2019-02-17T18:34:22.713Z,96081.38
2019-02-17T18:36:51.767Z,96080.91
2019-02-17T18:39:20.898Z,96080.33
2019-02-17T18:41:51.339Z,96085.48
2019-02-17T18:44:25.000Z,96084.74
2019-02-17T18:46:54.044Z,96085.69
2019-02-17T18:49:27.049Z,96084.06
2019-02-17T18:51:56.110Z,96084.52
2019-02-17T18:54:37.672Z,96084.42
2019-02-17T18:57:12.512Z,96083.70
2019-02-17T18:59:41.553Z,96081.59
2019-02-17T19:02:12.511Z,96076.98
2019-02-17T19:04:49.316Z,96072.09
2019-02-17T19:09:59.330Z,96085.92
2019-02-17T19:12:28.359Z,96081.44
2019-02-17T19:14:57.421Z,96081.14
2019-02-17T19:17:26.468Z,96082.99
2019-02-17T19:19:57.036Z,96086.41
2019-02-17T19:22:26.110Z,96084.44
2019-02-17T19:24:58.628Z,96080.09
2019-02-17T19:27:28.020Z,96082.95
2019-02-17T19:29:57.116Z,96081.38
2019-02-17T19:32:26.188Z,96078.19
2019-02-17T19:34:55.305Z,96075.57
2019-02-17T19:37:24.340Z,96076.95
2019-02-17T19:39:55.036Z,96076.66
2019-02-17T19:42:25.030Z,96077.97
2019-02-17T19:44:54.116Z,96076.72
2019-02-17T19:47:23.548Z,96077.93
2019-02-17T19:49:56.688Z,96075.14
2019-02-17T19:52:28.619Z,96074.87
2019-02-17T19:55:11.110Z,96076.17
2019-02-17T19:57:40.137Z,96072.08
2019-02-17T20:00:22.482Z,96072.44
2019-02-17T20:05:55.519Z,96080.70
2019-02-17T20:08:24.592Z,96074.67
2019-02-17T20:10:55.646Z,96074.67
2019-02-17T20:13:25.168Z,96076.02
2019-02-17T20:15:54.362Z,96081.80
2019-02-17T20:18:23.395Z,96081.20
2019-02-17T20:20:53.168Z,96080.80
2019-02-17T20:23:22.262Z,96085.80
2019-02-17T20:25:52.641Z,96080.77
2019-02-17T20:28:32.412Z,96081.14
2019-02-17T20:30:52.158Z,96082.36
2019-02-17T20:33:21.209Z,96079.02
2019-02-17T20:36:02.629Z,96082.83
2019-02-17T20:38:26.574Z,96083.11
2019-02-17T20:43:32.301Z,96079.83
2019-02-17T20:46:01.376Z,96080.98
2019-02-17T20:48:30.441Z,96077.46
2019-02-17T20:50:59.489Z,96076.22
2019-02-17T20:53:28.548Z,96072.00
2019-02-17T20:55:57.627Z,96073.66
2019-02-17T20:58:29.045Z,96076.75
2019-02-17T21:01:06.857Z,96077.25
2019-02-17T21:03:36.806Z,96073.93
2019-02-17T21:06:12.898Z,96077.28
2019-02-17T21:08:35.799Z,96081.17
2019-02-17T21:11:08.149Z,96079.71
2019-02-17T21:13:38.178Z,96077.89
2019-02-17T21:16:09.229Z,96075.61
2019-02-17T21:18:53.086Z,96075.01
2019-02-17T21:21:22.107Z,96074.60
2019-02-17T21:23:54.694Z,96073.09
2019-02-17T21:26:26.198Z,96076.22
2019-02-17T21:28:56.911Z,96077.22
2019-02-17T21:31:26.878Z,96072.64
2019-02-17T21:33:55.965Z,96077.36
2019-02-17T21:36:24.998Z,96076.66
2019-02-17T21:38:58.815Z,96077.09
2019-02-17T21:41:28.364Z,96075.41
2019-02-17T21:43:57.903Z,96074.40
2019-02-17T21:46:28.048Z,96072.63
2019-02-17T21:49:00.555Z,96070.67
2019-02-17T21:51:29.603Z,96070.45
2019-02-17T21:53:58.695Z,96068.94
2019-02-17T21:56:38.548Z,96071.23
2019-02-17T21:59:07.802Z,96069.52
2019-02-17T22:01:43.692Z,96066.68
2019-02-17T22:04:17.740Z,96066.53
2019-02-17T22:06:46.847Z,96063.13
2019-02-17T22:09:17.629Z,96065.36
2019-02-17T22:11:46.779Z,96058.62
2019-02-17T22:14:19.277Z,96059.96
2019-02-17T22:16:48.910Z,96057.52
2019-02-17T22:19:27.007Z,96056.36
2019-02-17T22:22:00.002Z,96056.72
2019-02-17T22:24:31.736Z,96058.45
2019-02-17T22:27:01.803Z,96056.66
2019-02-17T22:29:35.108Z,96056.09
2019-02-17T22:32:05.357Z,96054.50
2019-02-17T22:34:34.392Z,96049.77
2019-02-17T22:39:39.255Z,96042.02
2019-02-17T22:42:08.748Z,96046.04
2019-02-17T22:47:16.601Z,96037.67
2019-02-17T22:49:58.645Z,96044.63
2019-02-17T22:55:10.187Z,96049.75
2019-02-17T22:57:43.783Z,96044.19
2019-02-17T23:00:38.431Z,96048.77
2019-02-17T23:03:07.488Z,96043.36
2019-02-17T23:05:37.372Z,96044.38
2019-02-17T23:08:08.044Z,96049.20
2019-02-17T23:10:37.133Z,96046.64
2019-02-17T23:13:08.172Z,96047.70
2019-02-17T23:18:14.895Z,96044.20
2019-02-17T23:20:44.774Z,96042.52
2019-02-17T23:25:53.018Z,96044.41
2019-02-17T23:28:28.648Z,96041.48
2019-02-17T23:30:57.675Z,96043.64
2019-02-17T23:33:26.717Z,96044.92
2019-02-17T23:35:55.752Z,96042.43
2019-02-17T23:38:24.822Z,96044.48
2019-02-17T23:40:56.208Z,96047.70
2019-02-17T23:43:26.209Z,96040.70
2019-02-17T23:45:55.253Z,96039.81
2019-02-17T23:48:25.191Z,96036.38
2019-02-17T23:50:54.258Z,96037.92
2019-02-17T23:53:23.713Z,96036.63
2019-02-17T23:55:52.776Z,96032.98
2019-02-17T23:58:21.804Z,96031.67
